createdAt,value
2018-12-24T00:00:37.624Z,1009.00
2018-12-24T00:01:37.596Z,1008.97
2018-12-24T00:02:37.548Z,1009.00
2018-12-24T00:03:37.537Z,1009.03
2018-12-24T00:04:37.528Z,1009.06
2018-12-24T00:05:37.515Z,1009.03
2018-12-24T00:06:37.605Z,1009.03
2018-12-24T00:07:37.492Z,1009.08
2018-12-24T00:08:37.483Z,1009.10
2018-12-24T00:09:37.479Z,1009.13
2018-12-24T00:10:37.458Z,1009.12
2018-12-24T00:11:37.474Z,1009.18
2018-12-24T00:12:37.438Z,1009.21
2018-12-24T00:13:37.453Z,1009.24
2018-12-24T00:14:37.423Z,1009.25
2018-12-24T00:15:37.403Z,1009.24
2018-12-24T00:16:37.413Z,1009.31
2018-12-24T00:17:37.379Z,1009.34
2018-12-24T00:18:37.370Z,1009.30
2018-12-24T00:19:37.359Z,1009.38
2018-12-24T00:20:37.347Z,1009.35
2018-12-24T00:21:37.369Z,1009.34
2018-12-24T00:22:37.326Z,1009.44
2018-12-24T00:23:37.313Z,1009.48
2018-12-24T00:24:37.302Z,1009.51
2018-12-24T00:25:37.292Z,1009.44
2018-12-24T00:26:37.279Z,1009.44
2018-12-24T00:27:37.295Z,1009.52
2018-12-24T00:28:37.258Z,1009.46
2018-12-24T00:29:37.246Z,1009.53
2018-12-24T00:30:37.234Z,1009.56
2018-12-24T00:31:37.224Z,1009.52
2018-12-24T00:32:37.239Z,1009.60
2018-12-24T00:33:37.202Z,1009.68
2018-12-24T00:34:37.202Z,1009.62
2018-12-24T00:35:37.179Z,1009.74
2018-12-24T00:36:37.180Z,1009.73
2018-12-24T00:37:37.180Z,1009.76
2018-12-24T00:38:37.148Z,1009.81
2018-12-24T00:39:37.135Z,1009.83
2018-12-24T00:40:37.130Z,1009.79
2018-12-24T00:41:37.115Z,1009.90
2018-12-24T00:42:37.126Z,1009.83
2018-12-24T00:43:37.094Z,1009.89
2018-12-24T00:44:37.085Z,1009.91
2018-12-24T00:45:37.067Z,1010.01
2018-12-24T00:46:37.062Z,1010.02
2018-12-24T00:47:37.069Z,1010.07
2018-12-24T00:48:37.035Z,1010.15
2018-12-24T00:49:37.023Z,1010.14
2018-12-24T00:50:37.013Z,1010.21
2018-12-24T00:51:37.007Z,1010.27
2018-12-24T00:52:37.013Z,1010.29
2018-12-24T00:53:36.980Z,1010.34
2018-12-24T00:54:36.969Z,1010.36
2018-12-24T00:55:36.958Z,1010.38
2018-12-24T00:56:36.945Z,1010.37
2018-12-24T00:57:36.968Z,1010.33
2018-12-24T00:58:36.924Z,1010.42
2018-12-24T00:59:36.912Z,1010.47
2018-12-24T01:00:36.906Z,1010.50
2018-12-24T01:01:36.898Z,1010.50
2018-12-24T01:02:36.880Z,1010.54
2018-12-24T01:03:36.890Z,1010.66
2018-12-24T01:04:36.863Z,1010.61
2018-12-24T01:05:36.848Z,1010.64
2018-12-24T01:06:36.842Z,1010.72
2018-12-24T01:07:36.823Z,1010.77
2018-12-24T01:08:36.837Z,1010.76
2018-12-24T01:09:36.805Z,1010.76
2018-12-24T01:10:36.793Z,1010.82
2018-12-24T01:11:36.782Z,1010.78
2018-12-24T01:12:36.773Z,1010.92
2018-12-24T01:13:36.789Z,1011.00
2018-12-24T01:14:36.748Z,1011.04
2018-12-24T01:15:36.746Z,1011.01
2018-12-24T01:16:36.728Z,1011.00
2018-12-24T01:17:36.725Z,1010.98
2018-12-24T01:18:36.727Z,1011.03
2018-12-24T01:19:36.694Z,1011.03
2018-12-24T01:20:36.729Z,1011.13
2018-12-24T01:21:36.675Z,1011.17
2018-12-24T01:22:36.658Z,1011.20
2018-12-24T01:23:36.720Z,1011.23
2018-12-24T01:24:36.637Z,1011.25
2018-12-24T01:25:36.626Z,1011.24
2018-12-24T01:26:36.617Z,1011.28
2018-12-24T01:27:36.601Z,1011.27
2018-12-24T01:28:36.590Z,1011.33
2018-12-24T01:29:36.634Z,1011.37
2018-12-24T01:30:36.573Z,1011.39
2018-12-24T01:31:36.561Z,1011.38
2018-12-24T01:32:36.574Z,1011.46
2018-12-24T01:33:36.538Z,1011.49
2018-12-24T01:34:36.551Z,1011.57
2018-12-24T01:35:36.515Z,1011.61
2018-12-24T01:36:36.501Z,1011.62
2018-12-24T01:37:36.491Z,1011.64
2018-12-24T01:38:36.480Z,1011.63
2018-12-24T01:39:36.499Z,1011.64
2018-12-24T01:40:36.462Z,1011.65
2018-12-24T01:41:36.463Z,1011.68
2018-12-24T01:42:36.439Z,1011.74
2018-12-24T01:43:36.443Z,1011.83
2018-12-24T01:44:36.472Z,1011.88
2018-12-24T01:45:36.419Z,1011.88
2018-12-24T01:46:36.390Z,1011.92
2018-12-24T01:47:36.383Z,1011.98
2018-12-24T01:48:36.367Z,1011.99
2018-12-24T01:49:36.379Z,1012.01
2018-12-24T01:50:36.345Z,1011.99
2018-12-24T01:51:44.658Z,1012.09
2018-12-24T01:52:36.326Z,1012.06
2018-12-24T01:53:36.318Z,1012.17
2018-12-24T01:54:36.325Z,1012.13
2018-12-24T01:55:36.291Z,1012.14
2018-12-24T01:56:36.283Z,1011.98
2018-12-24T01:57:36.382Z,1012.10
2018-12-24T01:58:36.258Z,1012.18
2018-12-24T01:59:36.271Z,1012.20
2018-12-24T02:00:36.241Z,1012.12
2018-12-24T02:01:36.226Z,1012.15
2018-12-24T02:02:36.215Z,1012.32
2018-12-24T02:03:36.210Z,1012.33
2018-12-24T02:04:36.213Z,1012.37
2018-12-24T02:05:36.180Z,1012.43
2018-12-24T02:06:36.197Z,1012.43
2018-12-24T02:07:44.430Z,1012.46
2018-12-24T02:08:36.148Z,1012.43
2018-12-24T02:09:46.781Z,1012.45
2018-12-24T02:10:36.123Z,1012.45
2018-12-24T02:11:36.111Z,1012.44
2018-12-24T02:12:42.214Z,1012.47
2018-12-24T02:13:36.096Z,1012.48
2018-12-24T02:14:36.114Z,1012.54
2018-12-24T02:15:36.067Z,1012.54
2018-12-24T02:16:36.054Z,1012.64
2018-12-24T02:17:36.044Z,1012.56
2018-12-24T02:18:36.040Z,1012.65
2018-12-24T02:19:36.026Z,1012.74
2018-12-24T02:20:36.045Z,1012.74
2018-12-24T02:21:36.002Z,1012.74
2018-12-24T02:22:35.993Z,1012.75
2018-12-24T02:23:35.986Z,1012.77
2018-12-24T02:24:35.966Z,1012.75
2018-12-24T02:25:35.976Z,1012.83
2018-12-24T02:26:35.942Z,1012.81
2018-12-24T02:27:35.932Z,1012.88
2018-12-24T02:28:35.922Z,1012.92
2018-12-24T02:29:35.910Z,1012.92
2018-12-24T02:30:35.944Z,1012.95
2018-12-24T02:31:35.890Z,1012.96
2018-12-24T02:32:35.876Z,1012.96
2018-12-24T02:33:35.870Z,1013.03
2018-12-24T02:34:35.855Z,1012.99
2018-12-24T02:35:35.875Z,1012.96
2018-12-24T02:36:35.878Z,1013.00
2018-12-24T02:37:35.821Z,1013.05
2018-12-24T02:38:35.818Z,1013.03
2018-12-24T02:39:35.799Z,1013.02
2018-12-24T02:40:35.790Z,1013.03
2018-12-24T02:41:35.798Z,1013.08
2018-12-24T02:42:35.769Z,1013.14
2018-12-24T02:43:35.751Z,1013.15
2018-12-24T02:44:35.747Z,1013.13
2018-12-24T02:45:35.734Z,1013.16
2018-12-24T02:46:35.744Z,1013.22
2018-12-24T02:47:35.708Z,1013.25
2018-12-24T02:48:35.705Z,1013.23
2018-12-24T02:49:35.734Z,1013.25
2018-12-24T02:50:35.675Z,1013.29
2018-12-24T02:51:35.685Z,1013.28
2018-12-24T02:52:35.651Z,1013.34
2018-12-24T02:53:35.641Z,1013.30
2018-12-24T02:54:35.632Z,1013.31
2018-12-24T02:55:35.619Z,1013.31
2018-12-24T02:56:35.654Z,1013.37
2018-12-24T02:57:35.596Z,1013.36
2018-12-24T02:58:35.586Z,1013.36
2018-12-24T02:59:35.573Z,1013.40
2018-12-24T03:00:35.567Z,1013.41
2018-12-24T03:01:43.863Z,1013.42
2018-12-24T03:02:35.543Z,1013.44
2018-12-24T03:03:35.534Z,1013.44
2018-12-24T03:04:35.519Z,1013.53
2018-12-24T03:05:35.506Z,1013.52
2018-12-24T03:06:35.519Z,1013.53
2018-12-24T03:07:35.509Z,1013.51
2018-12-24T03:08:35.473Z,1013.48
2018-12-24T03:09:35.464Z,1013.61
2018-12-24T03:10:35.455Z,1013.57
2018-12-24T03:11:35.448Z,1013.62
2018-12-24T03:12:35.469Z,1013.62
2018-12-24T03:13:35.431Z,1013.64
2018-12-24T03:14:35.432Z,1013.67
2018-12-24T03:15:35.401Z,1013.67
2018-12-24T03:16:35.387Z,1013.64
2018-12-24T03:17:35.407Z,1013.67
2018-12-24T03:18:35.389Z,1013.67
2018-12-24T03:19:35.395Z,1013.68
2018-12-24T03:20:35.347Z,1013.72
2018-12-24T03:21:35.389Z,1013.71
2018-12-24T03:22:35.353Z,1013.75
2018-12-24T03:23:35.322Z,1013.80
2018-12-24T03:24:35.327Z,1013.82
2018-12-24T03:25:35.285Z,1013.77
2018-12-24T03:26:45.148Z,1013.79
2018-12-24T03:27:35.271Z,1013.80
2018-12-24T03:28:35.276Z,1013.83
2018-12-24T03:29:35.240Z,1013.81
2018-12-24T03:30:35.235Z,1013.86
2018-12-24T03:31:35.235Z,1013.95
2018-12-24T03:32:35.236Z,1013.90
2018-12-24T03:33:35.228Z,1013.91
2018-12-24T03:34:35.184Z,1013.96
2018-12-24T03:35:35.175Z,1013.97
2018-12-24T03:36:35.165Z,1013.97
2018-12-24T03:37:35.179Z,1014.02
2018-12-24T03:38:35.164Z,1014.05
2018-12-24T03:39:35.127Z,1014.08
2018-12-24T03:40:35.118Z,1014.06
2018-12-24T03:41:44.448Z,1014.05
2018-12-24T03:42:35.143Z,1014.10
2018-12-24T03:43:35.171Z,1014.17
2018-12-24T03:44:35.088Z,1014.14
2018-12-24T03:45:35.063Z,1014.14
2018-12-24T03:46:35.053Z,1014.17
2018-12-24T03:47:35.047Z,1014.19
2018-12-24T03:48:35.091Z,1014.25
2018-12-24T03:49:35.101Z,1014.21
2018-12-24T03:50:35.006Z,1014.24
2018-12-24T03:51:34.996Z,1014.30
2018-12-24T03:52:34.989Z,1014.25
2018-12-24T03:53:34.988Z,1014.25
2018-12-24T03:54:34.990Z,1014.24
2018-12-24T03:55:35.004Z,1014.33
2018-12-24T03:56:34.942Z,1014.31
2018-12-24T03:57:34.928Z,1014.35
2018-12-24T03:58:34.954Z,1014.36
2018-12-24T03:59:34.936Z,1014.38
2018-12-24T04:00:34.898Z,1014.40
2018-12-24T04:01:34.913Z,1014.37
2018-12-24T04:02:34.876Z,1014.41
2018-12-24T04:03:34.887Z,1014.46
2018-12-24T04:04:35.475Z,1014.41
2018-12-24T04:05:43.151Z,1014.39
2018-12-24T04:06:34.827Z,1014.42
2018-12-24T04:07:34.816Z,1014.48
2018-12-24T04:08:34.805Z,1014.47
2018-12-24T04:09:34.914Z,1014.49
2018-12-24T04:10:34.792Z,1014.49
2018-12-24T04:11:34.774Z,1014.53
2018-12-24T04:12:34.760Z,1014.51
2018-12-24T04:13:34.750Z,1014.57
2018-12-24T04:14:34.738Z,1014.61
2018-12-24T04:15:34.753Z,1014.61
2018-12-24T04:16:34.715Z,1014.64
2018-12-24T04:17:34.703Z,1014.67
2018-12-24T04:18:34.697Z,1014.69
2018-12-24T04:19:34.679Z,1014.68
2018-12-24T04:20:44.005Z,1014.75
2018-12-24T04:21:34.660Z,1014.77
2018-12-24T04:22:34.784Z,1014.79
2018-12-24T04:23:34.638Z,1014.77
2018-12-24T04:24:34.625Z,1014.81
2018-12-24T04:25:34.714Z,1014.90
2018-12-24T04:26:34.761Z,1014.91
2018-12-24T04:27:41.786Z,1014.92
2018-12-24T04:28:34.583Z,1014.95
2018-12-24T04:29:34.573Z,1015.02
2018-12-24T04:30:34.586Z,1015.08
2018-12-24T04:31:34.602Z,1015.09
2018-12-24T04:32:34.538Z,1015.16
2018-12-24T04:33:34.539Z,1015.20
2018-12-24T04:34:34.517Z,1015.18
2018-12-24T04:35:34.531Z,1015.14
2018-12-24T04:36:34.507Z,1015.30
2018-12-24T04:37:34.517Z,1015.20
2018-12-24T04:38:34.482Z,1015.22
2018-12-24T04:39:34.529Z,1015.29
2018-12-24T04:40:34.473Z,1015.36
2018-12-24T04:41:34.435Z,1015.37
2018-12-24T04:42:34.427Z,1015.32
2018-12-24T04:43:34.413Z,1015.32
2018-12-24T04:44:34.526Z,1015.37
2018-12-24T04:45:34.488Z,1015.36
2018-12-24T04:46:34.390Z,1015.33
2018-12-24T04:47:34.387Z,1015.39
2018-12-24T04:48:34.379Z,1015.42
2018-12-24T04:49:34.360Z,1015.40
2018-12-24T04:50:34.367Z,1015.44
2018-12-24T04:51:34.344Z,1015.48
2018-12-24T04:52:34.359Z,1015.43
2018-12-24T04:53:34.330Z,1015.48
2018-12-24T04:54:34.300Z,1015.56
2018-12-24T04:55:34.341Z,1015.61
2018-12-24T04:56:34.275Z,1015.61
2018-12-24T04:57:34.258Z,1015.67
2018-12-24T04:58:34.248Z,1015.70
2018-12-24T04:59:34.240Z,1015.72
2018-12-24T05:00:34.231Z,1015.74
2018-12-24T05:01:34.283Z,1015.75
2018-12-24T05:02:34.215Z,1015.73
2018-12-24T05:03:34.195Z,1015.73
2018-12-24T05:04:34.182Z,1015.75
2018-12-24T05:05:34.187Z,1015.76
2018-12-24T05:06:34.198Z,1015.76
2018-12-24T05:07:34.145Z,1015.82
2018-12-24T05:08:34.158Z,1015.85
2018-12-24T05:09:34.158Z,1015.92
2018-12-24T05:10:34.160Z,1015.95
2018-12-24T05:11:34.258Z,1016.02
2018-12-24T05:12:34.101Z,1015.99
2018-12-24T05:13:40.907Z,1016.03
2018-12-24T05:14:35.123Z,1016.01
2018-12-24T05:15:34.057Z,1016.04
2018-12-24T05:16:34.069Z,1016.11
2018-12-24T05:17:34.040Z,1016.09
2018-12-24T05:18:34.022Z,1016.16
2018-12-24T05:19:34.032Z,1016.21
2018-12-24T05:20:34.006Z,1016.22
2018-12-24T05:21:34.026Z,1016.33
2018-12-24T05:22:33.995Z,1016.31
2018-12-24T05:23:33.978Z,1016.37
2018-12-24T05:24:33.969Z,1016.41
2018-12-24T05:25:33.954Z,1016.48
2018-12-24T05:26:42.356Z,1016.49
2018-12-24T05:27:33.926Z,1016.49
2018-12-24T05:28:33.911Z,1016.51
2018-12-24T05:29:33.901Z,1016.52
2018-12-24T05:30:33.891Z,1016.51
2018-12-24T05:31:33.878Z,1016.58
2018-12-24T05:32:33.915Z,1016.58
2018-12-24T05:33:33.859Z,1016.55
2018-12-24T05:34:33.844Z,1016.59
2018-12-24T05:35:33.842Z,1016.65
2018-12-24T05:36:33.833Z,1016.68
2018-12-24T05:37:33.839Z,1016.76
2018-12-24T05:38:33.801Z,1016.72
2018-12-24T05:39:33.792Z,1016.73
2018-12-24T05:40:33.784Z,1016.72
2018-12-24T05:41:33.766Z,1016.72
2018-12-24T05:42:43.102Z,1016.84
2018-12-24T05:43:33.746Z,1016.83
2018-12-24T05:44:33.737Z,1016.83
2018-12-24T05:45:33.721Z,1016.83
2018-12-24T05:46:33.710Z,1016.92
2018-12-24T05:47:33.726Z,1016.89
2018-12-24T05:48:33.694Z,1016.84
2018-12-24T05:49:33.680Z,1016.90
2018-12-24T05:50:33.681Z,1016.90
2018-12-24T05:51:33.667Z,1016.96
2018-12-24T05:52:33.687Z,1017.00
2018-12-24T05:53:33.638Z,1016.99
2018-12-24T05:54:33.631Z,1017.01
2018-12-24T05:55:33.627Z,1017.03
2018-12-24T05:56:33.620Z,1017.07
2018-12-24T05:57:33.670Z,1017.08
2018-12-24T05:58:33.578Z,1017.06
2018-12-24T05:59:33.583Z,1017.12
2018-12-24T06:00:33.587Z,1017.16
2018-12-24T06:01:33.558Z,1017.14
2018-12-24T06:02:33.538Z,1017.17
2018-12-24T06:03:33.553Z,1017.20
2018-12-24T06:04:33.517Z,1017.25
2018-12-24T06:05:33.498Z,1017.27
2018-12-24T06:06:33.486Z,1017.29
2018-12-24T06:07:33.474Z,1017.26
2018-12-24T06:08:33.488Z,1017.25
2018-12-24T06:09:33.471Z,1017.37
2018-12-24T06:10:33.472Z,1017.40
2018-12-24T06:11:41.697Z,1017.39
2018-12-24T06:12:33.421Z,1017.44
2018-12-24T06:13:33.442Z,1017.43
2018-12-24T06:14:33.398Z,1017.42
2018-12-24T06:15:33.385Z,1017.50
2018-12-24T06:16:33.377Z,1017.52
2018-12-24T06:17:33.364Z,1017.51
2018-12-24T06:18:33.381Z,1017.51
2018-12-24T06:19:33.344Z,1017.57
2018-12-24T06:20:37.672Z,1017.58
2018-12-24T06:21:33.321Z,1017.61
2018-12-24T06:22:42.679Z,1017.61
2018-12-24T06:23:33.322Z,1017.64
2018-12-24T06:24:41.560Z,1017.64
2018-12-24T06:25:33.278Z,1017.62
2018-12-24T06:26:33.261Z,1017.67
2018-12-24T06:27:33.252Z,1017.71
2018-12-24T06:28:33.265Z,1017.72
2018-12-24T06:29:33.231Z,1017.77
2018-12-24T06:30:33.218Z,1017.80
2018-12-24T06:31:33.209Z,1017.81
2018-12-24T06:32:33.193Z,1017.82
2018-12-24T06:33:33.206Z,1017.82
2018-12-24T06:34:33.173Z,1017.86
2018-12-24T06:35:33.172Z,1017.87
2018-12-24T06:36:33.154Z,1017.92
2018-12-24T06:37:33.141Z,1017.98
2018-12-24T06:38:33.161Z,1017.96
2018-12-24T06:39:41.416Z,1017.98
2018-12-24T06:40:33.105Z,1018.02
2018-12-24T06:41:33.095Z,1018.01
2018-12-24T06:42:33.098Z,1018.07
2018-12-24T06:43:33.070Z,1018.09
2018-12-24T06:44:33.082Z,1018.13
2018-12-24T06:45:33.053Z,1018.17
2018-12-24T06:46:33.038Z,1018.13
2018-12-24T06:47:33.034Z,1018.15
2018-12-24T06:48:33.016Z,1018.19
2018-12-24T06:49:33.070Z,1018.16
2018-12-24T06:50:32.995Z,1018.21
2018-12-24T06:51:32.982Z,1018.26
2018-12-24T06:52:32.974Z,1018.34
2018-12-24T06:53:32.967Z,1018.36
2018-12-24T06:54:32.982Z,1018.37
2018-12-24T06:55:32.938Z,1018.36
2018-12-24T06:56:32.937Z,1018.37
2018-12-24T06:57:32.915Z,1018.39
2018-12-24T06:58:32.906Z,1018.44
2018-12-24T06:59:32.916Z,1018.45
2018-12-24T07:00:32.889Z,1018.45
2018-12-24T07:01:32.874Z,1018.52
2018-12-24T07:02:32.864Z,1018.50
2018-12-24T07:03:32.847Z,1018.51
2018-12-24T07:04:32.859Z,1018.55
2018-12-24T07:05:32.827Z,1018.59
2018-12-24T07:06:32.815Z,1018.59
2018-12-24T07:07:32.804Z,1018.57
2018-12-24T07:08:41.698Z,1018.61
2018-12-24T07:09:32.834Z,1018.64
2018-12-24T07:10:32.775Z,1018.68
2018-12-24T07:11:32.756Z,1018.70
2018-12-24T07:12:32.748Z,1018.69
2018-12-24T07:13:32.734Z,1018.69
2018-12-24T07:14:32.725Z,1018.75
2018-12-24T07:15:32.733Z,1018.82
2018-12-24T07:16:40.919Z,1018.78
2018-12-24T07:17:41.049Z,1018.86
2018-12-24T07:18:32.682Z,1018.87
2018-12-24T07:19:32.670Z,1018.85
2018-12-24T07:20:32.679Z,1018.84
2018-12-24T07:21:32.644Z,1018.88
2018-12-24T07:22:32.636Z,1018.93
2018-12-24T07:23:32.622Z,1018.93
2018-12-24T07:24:32.610Z,1018.96
2018-12-24T07:25:32.623Z,1019.02
2018-12-24T07:26:32.594Z,1019.01
2018-12-24T07:27:32.576Z,1019.04
2018-12-24T07:28:32.564Z,1019.05
2018-12-24T07:29:32.554Z,1019.06
2018-12-24T07:30:32.569Z,1019.08
2018-12-24T07:31:32.547Z,1019.02
2018-12-24T07:32:41.034Z,1019.06
2018-12-24T07:33:32.511Z,1019.04
2018-12-24T07:34:32.955Z,1019.05
2018-12-24T07:35:32.511Z,1019.13
2018-12-24T07:36:41.764Z,1019.11
2018-12-24T07:37:32.467Z,1019.12
2018-12-24T07:38:32.459Z,1019.10
2018-12-24T07:39:32.443Z,1019.13
2018-12-24T07:40:32.623Z,1019.16
2018-12-24T07:41:32.422Z,1019.22
2018-12-24T07:42:32.488Z,1019.15
2018-12-24T07:43:32.400Z,1019.20
2018-12-24T07:44:32.384Z,1019.18
2018-12-24T07:45:32.413Z,1019.25
2018-12-24T07:46:32.362Z,1019.29
2018-12-24T07:47:41.774Z,1019.28
2018-12-24T07:48:32.343Z,1019.30
2018-12-24T07:49:32.332Z,1019.29
2018-12-24T07:50:32.320Z,1019.27
2018-12-24T07:51:32.331Z,1019.33
2018-12-24T07:52:40.677Z,1019.34
2018-12-24T07:53:32.301Z,1019.29
2018-12-24T07:54:32.288Z,1019.36
2018-12-24T07:55:32.261Z,1019.32
2018-12-24T07:56:32.294Z,1019.35
2018-12-24T07:57:32.242Z,1019.37
2018-12-24T07:58:32.226Z,1019.41
2018-12-24T07:59:32.216Z,1019.41
2018-12-24T08:00:32.206Z,1019.40
2018-12-24T08:02:42.319Z,1019.43
2018-12-24T08:03:42.227Z,1019.45
2018-12-24T08:04:51.821Z,1019.50
2018-12-24T08:05:42.205Z,1019.54
2018-12-24T08:06:42.218Z,1019.55
2018-12-24T08:07:42.188Z,1019.57
2018-12-24T08:08:42.172Z,1019.69
2018-12-24T08:09:42.160Z,1019.68
2018-12-24T08:10:42.147Z,1019.63
2018-12-24T08:11:42.160Z,1019.62
2018-12-24T08:12:42.130Z,1019.67
2018-12-24T08:13:42.707Z,1019.67
2018-12-24T08:14:42.106Z,1019.64
2018-12-24T08:15:42.180Z,1019.64
2018-12-24T08:16:42.212Z,1019.64
2018-12-24T08:17:42.070Z,1019.63
2018-12-24T08:18:42.062Z,1019.65
2018-12-24T08:19:42.047Z,1019.66
2018-12-24T08:20:42.044Z,1019.70
2018-12-24T08:21:42.028Z,1019.70
2018-12-24T08:22:42.041Z,1019.72
2018-12-24T08:23:42.003Z,1019.71
2018-12-24T08:24:41.997Z,1019.71
2018-12-24T08:25:41.998Z,1019.74
2018-12-24T08:26:41.971Z,1019.78
2018-12-24T08:27:41.988Z,1019.80
2018-12-24T08:28:41.947Z,1019.87
2018-12-24T08:29:41.940Z,1019.90
2018-12-24T08:30:41.927Z,1019.96
2018-12-24T08:31:41.986Z,1019.96
2018-12-24T08:32:41.951Z,1020.03
2018-12-24T08:33:41.891Z,1020.02
2018-12-24T08:34:41.878Z,1020.04
2018-12-24T08:35:41.869Z,1020.06
2018-12-24T08:36:41.860Z,1020.20
2018-12-24T08:37:41.874Z,1020.16
2018-12-24T08:38:41.839Z,1020.19
2018-12-24T08:39:41.855Z,1020.19
2018-12-24T08:40:41.815Z,1020.22
2018-12-24T08:41:41.802Z,1020.23
2018-12-24T08:42:41.811Z,1020.21
2018-12-24T08:43:42.014Z,1020.17
2018-12-24T08:44:42.183Z,1020.24
2018-12-24T08:45:41.756Z,1020.28
2018-12-24T08:46:41.747Z,1020.27
2018-12-24T08:47:41.788Z,1020.27
2018-12-24T08:48:41.732Z,1020.27
2018-12-24T08:49:42.493Z,1020.36
2018-12-24T08:50:41.700Z,1020.32
2018-12-24T08:51:41.741Z,1020.39
2018-12-24T08:52:41.987Z,1020.36
2018-12-24T08:53:41.671Z,1020.41
2018-12-24T08:54:41.657Z,1020.44
2018-12-24T08:55:41.654Z,1020.47
2018-12-24T08:56:41.653Z,1020.49
2018-12-24T08:57:41.652Z,1020.54
2018-12-24T08:58:41.639Z,1020.59
2018-12-24T08:59:41.601Z,1020.63
2018-12-24T09:00:41.589Z,1020.65
2018-12-24T09:01:41.578Z,1020.65
2018-12-24T09:02:41.570Z,1020.67
2018-12-24T09:03:41.579Z,1020.71
2018-12-24T09:04:41.547Z,1020.68
2018-12-24T09:05:41.537Z,1020.73
2018-12-24T09:06:41.525Z,1020.74
2018-12-24T09:07:41.512Z,1020.86
2018-12-24T09:08:41.525Z,1020.88
2018-12-24T09:09:49.975Z,1020.91
2018-12-24T09:10:41.689Z,1020.90
2018-12-24T09:11:41.469Z,1020.93
2018-12-24T09:12:41.456Z,1020.96
2018-12-24T09:13:49.896Z,1021.05
2018-12-24T09:14:41.433Z,1021.10
2018-12-24T09:15:41.422Z,1021.08
2018-12-24T09:16:41.488Z,1021.16
2018-12-24T09:17:41.400Z,1021.18
2018-12-24T09:18:41.432Z,1021.18
2018-12-24T09:19:51.482Z,1021.24
2018-12-24T09:20:52.703Z,1021.28
2018-12-24T09:21:41.354Z,1021.29
2018-12-24T09:22:41.344Z,1021.28
2018-12-24T09:23:41.332Z,1021.31
2018-12-24T09:24:41.344Z,1021.39
2018-12-24T09:25:41.311Z,1021.50
2018-12-24T09:26:41.300Z,1021.46
2018-12-24T09:27:41.288Z,1021.53
2018-12-24T09:28:41.278Z,1021.55
2018-12-24T09:29:41.291Z,1021.54
2018-12-24T09:30:41.258Z,1021.52
2018-12-24T09:31:41.243Z,1021.56
2018-12-24T09:32:41.236Z,1021.58
2018-12-24T09:33:41.221Z,1021.62
2018-12-24T09:34:41.233Z,1021.65
2018-12-24T09:35:41.205Z,1021.64
2018-12-24T09:36:41.190Z,1021.66
2018-12-24T09:37:41.176Z,1021.74
2018-12-24T09:38:41.169Z,1021.69
2018-12-24T09:39:41.177Z,1021.72
2018-12-24T09:40:50.843Z,1021.78
2018-12-24T09:41:41.480Z,1021.79
2018-12-24T09:42:41.120Z,1021.78
2018-12-24T09:43:41.112Z,1021.81
2018-12-24T09:44:41.121Z,1021.85
2018-12-24T09:45:41.087Z,1021.89
2018-12-24T09:46:49.743Z,1021.86
2018-12-24T09:47:41.065Z,1021.92
2018-12-24T09:48:41.057Z,1021.91
2018-12-24T09:49:41.066Z,1021.97
2018-12-24T09:50:41.066Z,1021.97
2018-12-24T09:51:41.024Z,1021.97
2018-12-24T09:52:41.022Z,1022.01
2018-12-24T09:53:41.000Z,1022.00
2018-12-24T09:54:41.291Z,1022.08
2018-12-24T09:55:40.980Z,1022.11
2018-12-24T09:56:40.967Z,1022.11
2018-12-24T09:57:40.953Z,1022.12
2018-12-24T09:58:40.941Z,1022.17
2018-12-24T09:59:40.930Z,1022.18
2018-12-24T10:00:40.942Z,1022.19
2018-12-24T10:01:40.912Z,1022.21
2018-12-24T10:02:40.897Z,1022.27
2018-12-24T10:03:40.942Z,1022.24
2018-12-24T10:04:40.892Z,1022.25
2018-12-24T10:05:40.940Z,1022.35
2018-12-24T10:06:40.853Z,1022.33
2018-12-24T10:07:40.903Z,1022.39
2018-12-24T10:08:50.615Z,1022.37
2018-12-24T10:09:40.926Z,1022.43
2018-12-24T10:10:40.843Z,1022.46
2018-12-24T10:11:40.797Z,1022.52
2018-12-24T10:12:40.787Z,1022.49
2018-12-24T10:13:40.931Z,1022.58
2018-12-24T10:14:40.769Z,1022.55
2018-12-24T10:15:40.780Z,1022.63
2018-12-24T10:16:40.740Z,1022.60
2018-12-24T10:17:41.308Z,1022.72
2018-12-24T10:18:41.412Z,1022.74
2018-12-24T10:19:50.475Z,1022.69
2018-12-24T10:20:40.722Z,1022.67
2018-12-24T10:21:40.686Z,1022.70
2018-12-24T10:22:40.674Z,1022.71
2018-12-24T10:23:41.182Z,1022.75
2018-12-24T10:24:40.653Z,1022.73
2018-12-24T10:25:40.676Z,1022.76
2018-12-24T10:26:40.682Z,1022.70
2018-12-24T10:27:40.775Z,1022.71
2018-12-24T10:28:40.611Z,1022.72
2018-12-24T10:29:40.601Z,1022.70
2018-12-24T10:30:40.658Z,1022.72
2018-12-24T10:31:50.103Z,1022.73
2018-12-24T10:32:40.562Z,1022.72
2018-12-24T10:33:40.551Z,1022.75
2018-12-24T10:34:40.540Z,1022.73
2018-12-24T10:35:40.531Z,1022.77
2018-12-24T10:36:40.628Z,1022.71
2018-12-24T10:37:40.505Z,1022.70
2018-12-24T10:38:40.496Z,1022.71
2018-12-24T10:39:40.557Z,1022.69
2018-12-24T10:40:50.254Z,1022.76
2018-12-24T10:41:41.385Z,1022.77
2018-12-24T10:42:40.458Z,1022.76
2018-12-24T10:43:40.452Z,1022.80
2018-12-24T10:44:40.428Z,1022.76
2018-12-24T10:45:40.739Z,1022.73
2018-12-24T10:46:40.433Z,1022.74
2018-12-24T10:47:48.784Z,1022.75
2018-12-24T10:48:49.690Z,1022.79
2018-12-24T10:49:40.387Z,1022.73
2018-12-24T10:50:40.361Z,1022.74
2018-12-24T10:51:40.372Z,1022.81
2018-12-24T10:52:40.338Z,1022.80
2018-12-24T10:53:40.331Z,1022.78
2018-12-24T10:54:40.319Z,1022.78
2018-12-24T10:55:50.468Z,1022.82
2018-12-24T10:56:40.324Z,1022.85
2018-12-24T10:57:49.661Z,1022.80
2018-12-24T10:58:40.272Z,1022.80
2018-12-24T10:59:40.261Z,1022.83
2018-12-24T11:00:40.249Z,1022.87
2018-12-24T11:01:40.273Z,1022.84
2018-12-24T11:02:40.231Z,1022.83
2018-12-24T11:03:40.267Z,1022.79
2018-12-24T11:04:40.214Z,1022.82
2018-12-24T11:05:40.236Z,1022.79
2018-12-24T11:06:40.186Z,1022.81
2018-12-24T11:07:40.306Z,1022.81
2018-12-24T11:08:40.168Z,1022.80
2018-12-24T11:09:50.743Z,1022.79
2018-12-24T11:10:40.159Z,1022.76
2018-12-24T11:11:40.133Z,1022.76
2018-12-24T11:12:40.140Z,1022.66
2018-12-24T11:13:40.105Z,1022.65
2018-12-24T11:14:40.093Z,1022.72
2018-12-24T11:15:40.091Z,1022.68
2018-12-24T11:16:40.073Z,1022.65
2018-12-24T11:17:49.863Z,1022.68
2018-12-24T11:18:40.049Z,1022.71
2018-12-24T11:19:40.042Z,1022.68
2018-12-24T11:20:40.026Z,1022.66
2018-12-24T11:21:40.016Z,1022.68
2018-12-24T11:22:40.028Z,1022.66
2018-12-24T11:23:39.993Z,1022.66
2018-12-24T11:24:39.982Z,1022.71
2018-12-24T11:25:50.034Z,1022.62
2018-12-24T11:26:39.961Z,1022.71
2018-12-24T11:27:39.981Z,1022.68
2018-12-24T11:28:49.452Z,1022.71
2018-12-24T11:29:39.927Z,1022.74
2018-12-24T11:30:39.919Z,1022.75
2018-12-24T11:31:39.906Z,1022.76
2018-12-24T11:32:39.920Z,1022.65
2018-12-24T11:33:39.881Z,1022.73
2018-12-24T11:34:39.871Z,1022.72
2018-12-24T11:35:39.898Z,1022.70
2018-12-24T11:36:39.848Z,1022.71
2018-12-24T11:37:39.859Z,1022.77
2018-12-24T11:38:50.911Z,1022.68
2018-12-24T11:39:39.821Z,1022.73
2018-12-24T11:40:39.804Z,1022.70
2018-12-24T11:41:49.568Z,1022.68
2018-12-24T11:42:39.843Z,1022.63
2018-12-24T11:43:39.773Z,1022.65
2018-12-24T11:44:39.759Z,1022.63
2018-12-24T11:45:39.748Z,1022.59
2018-12-24T11:46:39.737Z,1022.62
2018-12-24T11:47:39.734Z,1022.65
2018-12-24T11:48:39.748Z,1022.62
2018-12-24T11:49:39.710Z,1022.67
2018-12-24T11:50:39.693Z,1022.69
2018-12-24T11:51:39.682Z,1022.71
2018-12-24T11:52:39.679Z,1022.69
2018-12-24T11:53:39.697Z,1022.71
2018-12-24T11:54:51.600Z,1022.65
2018-12-24T11:55:39.644Z,1022.69
2018-12-24T11:57:35.095Z,1022.70
2018-12-24T11:58:35.106Z,1022.70
2018-12-24T11:59:35.067Z,1022.71
2018-12-24T12:00:35.057Z,1022.69
2018-12-24T12:01:35.045Z,1022.72
2018-12-24T12:02:35.049Z,1022.64
2018-12-24T12:03:35.060Z,1022.63
2018-12-24T12:04:35.011Z,1022.66
2018-12-24T12:05:35.002Z,1022.64
2018-12-24T12:06:35.011Z,1022.58
2018-12-24T12:07:34.979Z,1022.52